sensor_id;sensor_type;location;lat;lon;timestamp;pressure;altitude;pressure_sealevel;temperature;humidity
17821;BME280;9035;42.554;23.188;2022-10-15T00:01:05;90148.72;;;12.12;61.04
17821;BME280;9035;42.554;23.188;2022-10-15T00:03:35;90166.69;;;12.29;61.27
17821;BME280;9035;42.554;23.188;2022-10-15T00:06:06;90169.94;;;12.38;61.08
17821;BME280;9035;42.554;23.188;2022-10-15T00:08:35;90162.34;;;12.33;61.85
17821;BME280;9035;42.554;23.188;2022-10-15T00:11:04;90159.09;;;12.24;62.68
17821;BME280;9035;42.554;23.188;2022-10-15T00:13:31;90161.59;;;12.21;62.24
17821;BME280;9035;42.554;23.188;2022-10-15T00:15:58;90159.56;;;12.14;62.16
17821;BME280;9035;42.554;23.188;2022-10-15T00:18:25;90154.03;;;12.16;61.26
17821;BME280;9035;42.554;23.188;2022-10-15T00:20:52;90148.06;;;12.03;61.61
17821;BME280;9035;42.554;23.188;2022-10-15T00:23:18;90151.84;;;12.06;61.79
17821;BME280;9035;42.554;23.188;2022-10-15T00:25:47;90152.72;;;11.98;61.85
17821;BME280;9035;42.554;23.188;2022-10-15T00:28:14;90156.63;;;11.92;62.59
17821;BME280;9035;42.554;23.188;2022-10-15T00:30:41;90157.25;;;11.89;62.40
17821;BME280;9035;42.554;23.188;2022-10-15T00:33:07;90148.16;;;11.95;62.58
17821;BME280;9035;42.554;23.188;2022-10-15T00:35:34;90142.78;;;12.00;61.98
17821;BME280;9035;42.554;23.188;2022-10-15T00:38:01;90140.91;;;12.00;63.27
17821;BME280;9035;42.554;23.188;2022-10-15T00:40:28;90138.44;;;11.92;62.67
17821;BME280;9035;42.554;23.188;2022-10-15T00:42:56;90133.13;;;11.89;63.01
17821;BME280;9035;42.554;23.188;2022-10-15T00:45:22;90139.41;;;11.88;61.78
17821;BME280;9035;42.554;23.188;2022-10-15T00:47:50;90137.13;;;11.98;61.57
17821;BME280;9035;42.554;23.188;2022-10-15T00:50:19;90130.94;;;11.91;62.59
17821;BME280;9035;42.554;23.188;2022-10-15T00:52:56;90134.41;;;11.83;62.87
17821;BME280;9035;42.554;23.188;2022-10-15T00:55:28;90134.53;;;11.74;63.33
17821;BME280;9035;42.554;23.188;2022-10-15T00:57:58;90134.31;;;11.79;63.13
17821;BME280;9035;42.554;23.188;2022-10-15T01:00:27;90132.47;;;11.80;63.82
17821;BME280;9035;42.554;23.188;2022-10-15T01:02:54;90128.47;;;11.70;63.22
17821;BME280;9035;42.554;23.188;2022-10-15T01:05:22;90129.78;;;11.76;63.43
17821;BME280;9035;42.554;23.188;2022-10-15T01:07:49;90128.56;;;11.74;63.39
17821;BME280;9035;42.554;23.188;2022-10-15T01:10:17;90125.31;;;11.77;63.52
17821;BME280;9035;42.554;23.188;2022-10-15T01:12:54;90121.88;;;11.73;62.91
17821;BME280;9035;42.554;23.188;2022-10-15T01:15:25;90119.25;;;11.61;62.77
17821;BME280;9035;42.554;23.188;2022-10-15T01:17:58;90120.88;;;11.65;63.27
17821;BME280;9035;42.554;23.188;2022-10-15T01:20:51;90126.97;;;11.69;62.97
17821;BME280;9035;42.554;23.188;2022-10-15T01:23:54;90128.78;;;11.57;63.42
17821;BME280;9035;42.554;23.188;2022-10-15T01:26:41;90127.31;;;11.47;63.68
17821;BME280;9035;42.554;23.188;2022-10-15T01:29:25;90139.38;;;11.52;64.36
17821;BME280;9035;42.554;23.188;2022-10-15T01:32:01;90132.34;;;11.52;63.58
17821;BME280;9035;42.554;23.188;2022-10-15T01:34:35;90135.34;;;11.42;64.17
17821;BME280;9035;42.554;23.188;2022-10-15T01:37:08;90136.53;;;11.45;63.83
17821;BME280;9035;42.554;23.188;2022-10-15T01:39:40;90126.47;;;11.43;63.91
17821;BME280;9035;42.554;23.188;2022-10-15T01:42:12;90128.41;;;11.46;63.83
17821;BME280;9035;42.554;23.188;2022-10-15T01:44:43;90135.78;;;11.44;64.52
17821;BME280;9035;42.554;23.188;2022-10-15T01:47:18;90128.41;;;11.46;63.49
17821;BME280;9035;42.554;23.188;2022-10-15T01:49:48;90131.66;;;11.43;64.80
17821;BME280;9035;42.554;23.188;2022-10-15T01:52:18;90132.63;;;11.39;64.39
17821;BME280;9035;42.554;23.188;2022-10-15T01:54:47;90123.66;;;11.48;63.60
17821;BME280;9035;42.554;23.188;2022-10-15T01:57:15;90113.00;;;11.29;64.93
17821;BME280;9035;42.554;23.188;2022-10-15T01:59:43;90123.31;;;11.38;64.42
17821;BME280;9035;42.554;23.188;2022-10-15T02:02:10;90125.50;;;11.48;63.49
17821;BME280;9035;42.554;23.188;2022-10-15T02:04:39;90127.84;;;11.41;63.90
17821;BME280;9035;42.554;23.188;2022-10-15T02:07:08;90126.56;;;11.47;64.33
17821;BME280;9035;42.554;23.188;2022-10-15T02:09:42;90127.22;;;11.32;65.09
17821;BME280;9035;42.554;23.188;2022-10-15T02:12:23;90125.34;;;11.32;64.60
17821;BME280;9035;42.554;23.188;2022-10-15T02:14:59;90128.06;;;11.36;64.77
17821;BME280;9035;42.554;23.188;2022-10-15T02:17:33;90123.50;;;11.33;64.98
17821;BME280;9035;42.554;23.188;2022-10-15T02:20:05;90130.44;;;11.29;65.05
17821;BME280;9035;42.554;23.188;2022-10-15T02:22:41;90126.53;;;11.35;64.68
17821;BME280;9035;42.554;23.188;2022-10-15T02:25:14;90134.84;;;11.28;65.19
17821;BME280;9035;42.554;23.188;2022-10-15T02:27:43;90131.28;;;11.33;64.56
17821;BME280;9035;42.554;23.188;2022-10-15T02:30:13;90124.91;;;11.18;65.40
17821;BME280;9035;42.554;23.188;2022-10-15T02:32:41;90134.91;;;11.08;66.17
17821;BME280;9035;42.554;23.188;2022-10-15T02:35:12;90133.94;;;11.13;65.21
17821;BME280;9035;42.554;23.188;2022-10-15T02:37:43;90131.56;;;11.08;65.28
17821;BME280;9035;42.554;23.188;2022-10-15T02:40:13;90128.09;;;11.04;66.05
17821;BME280;9035;42.554;23.188;2022-10-15T02:42:40;90128.41;;;11.02;65.72
17821;BME280;9035;42.554;23.188;2022-10-15T02:45:07;90133.81;;;11.09;65.98
17821;BME280;9035;42.554;23.188;2022-10-15T02:47:34;90135.22;;;10.95;66.45
17821;BME280;9035;42.554;23.188;2022-10-15T02:50:01;90126.31;;;10.96;66.08
17821;BME280;9035;42.554;23.188;2022-10-15T02:52:29;90130.88;;;10.99;66.08
17821;BME280;9035;42.554;23.188;2022-10-15T02:54:56;90123.88;;;10.99;66.22
17821;BME280;9035;42.554;23.188;2022-10-15T02:57:23;90124.06;;;10.94;66.37
17821;BME280;9035;42.554;23.188;2022-10-15T02:59:49;90127.94;;;10.88;66.68
17821;BME280;9035;42.554;23.188;2022-10-15T03:02:16;90118.75;;;10.91;66.98
17821;BME280;9035;42.554;23.188;2022-10-15T03:04:43;90119.19;;;10.93;66.58
17821;BME280;9035;42.554;23.188;2022-10-15T03:07:10;90113.66;;;10.82;67.69
17821;BME280;9035;42.554;23.188;2022-10-15T03:09:38;90107.06;;;10.85;67.16
17821;BME280;9035;42.554;23.188;2022-10-15T03:12:05;90119.81;;;10.90;67.41
17821;BME280;9035;42.554;23.188;2022-10-15T03:14:32;90111.59;;;10.88;67.75
17821;BME280;9035;42.554;23.188;2022-10-15T03:16:59;90106.22;;;10.93;67.12
17821;BME280;9035;42.554;23.188;2022-10-15T03:19:25;90115.66;;;10.97;66.72
17821;BME280;9035;42.554;23.188;2022-10-15T03:21:52;90117.56;;;10.88;67.36
17821;BME280;9035;42.554;23.188;2022-10-15T03:24:19;90118.63;;;10.87;67.79
17821;BME280;9035;42.554;23.188;2022-10-15T03:26:47;90124.16;;;10.86;67.44
17821;BME280;9035;42.554;23.188;2022-10-15T03:29:14;90136.53;;;10.80;67.54
17821;BME280;9035;42.554;23.188;2022-10-15T03:31:41;90129.16;;;10.70;67.62
17821;BME280;9035;42.554;23.188;2022-10-15T03:34:07;90129.34;;;10.65;68.09
17821;BME280;9035;42.554;23.188;2022-10-15T03:36:34;90126.66;;;10.62;68.15
17821;BME280;9035;42.554;23.188;2022-10-15T03:39:01;90131.84;;;10.62;68.33
17821;BME280;9035;42.554;23.188;2022-10-15T03:41:28;90133.66;;;10.61;67.81
17821;BME280;9035;42.554;23.188;2022-10-15T03:43:59;90134.97;;;10.67;67.77
17821;BME280;9035;42.554;23.188;2022-10-15T03:46:26;90130.22;;;10.69;68.13
17821;BME280;9035;42.554;23.188;2022-10-15T03:48:53;90127.16;;;10.55;68.88
17821;BME280;9035;42.554;23.188;2022-10-15T03:51:19;90141.06;;;10.51;69.09
17821;BME280;9035;42.554;23.188;2022-10-15T03:53:46;90129.03;;;10.46;68.43
17821;BME280;9035;42.554;23.188;2022-10-15T03:56:13;90140.44;;;10.54;68.52
17821;BME280;9035;42.554;23.188;2022-10-15T03:58:40;90136.94;;;10.50;68.49
17821;BME280;9035;42.554;23.188;2022-10-15T04:01:08;90133.03;;;10.44;68.98
17821;BME280;9035;42.554;23.188;2022-10-15T04:03:35;90139.41;;;10.46;68.66
17821;BME280;9035;42.554;23.188;2022-10-15T04:06:03;90134.09;;;10.43;68.54
17821;BME280;9035;42.554;23.188;2022-10-15T04:08:30;90134.84;;;10.43;68.31
17821;BME280;9035;42.554;23.188;2022-10-15T04:10:56;90138.13;;;10.32;69.52
17821;BME280;9035;42.554;23.188;2022-10-15T04:13:24;90145.78;;;10.49;68.60
17821;BME280;9035;42.554;23.188;2022-10-15T04:15:51;90140.03;;;10.43;68.76
17821;BME280;9035;42.554;23.188;2022-10-15T04:18:19;90136.31;;;10.33;69.10
17821;BME280;9035;42.554;23.188;2022-10-15T04:20:46;90138.91;;;10.33;69.02
17821;BME280;9035;42.554;23.188;2022-10-15T04:23:13;90140.34;;;10.22;69.10
17821;BME280;9035;42.554;23.188;2022-10-15T04:25:40;90146.53;;;10.09;69.48
17821;BME280;9035;42.554;23.188;2022-10-15T04:28:07;90143.41;;;10.15;69.44
17821;BME280;9035;42.554;23.188;2022-10-15T04:30:34;90134.91;;;10.15;69.94
17821;BME280;9035;42.554;23.188;2022-10-15T04:33:01;90134.59;;;10.16;69.07
17821;BME280;9035;42.554;23.188;2022-10-15T04:35:29;90136.34;;;10.04;69.70
17821;BME280;9035;42.554;23.188;2022-10-15T04:37:56;90136.91;;;10.09;69.20
17821;BME280;9035;42.554;23.188;2022-10-15T04:40:23;90140.91;;;10.07;69.98
17821;BME280;9035;42.554;23.188;2022-10-15T04:42:50;90145.75;;;10.08;70.17
17821;BME280;9035;42.554;23.188;2022-10-15T04:45:17;90143.28;;;10.12;69.93
17821;BME280;9035;42.554;23.188;2022-10-15T04:47:44;90138.75;;;10.09;70.66
17821;BME280;9035;42.554;23.188;2022-10-15T04:50:11;90140.56;;;10.08;69.81
17821;BME280;9035;42.554;23.188;2022-10-15T04:52:39;90151.53;;;10.14;70.17
17821;BME280;9035;42.554;23.188;2022-10-15T04:55:06;90139.91;;;10.20;69.67
17821;BME280;9035;42.554;23.188;2022-10-15T04:57:33;90140.47;;;10.25;69.82
17821;BME280;9035;42.554;23.188;2022-10-15T05:00:00;90150.91;;;10.17;70.30
17821;BME280;9035;42.554;23.188;2022-10-15T05:02:26;90146.78;;;10.16;70.03
17821;BME280;9035;42.554;23.188;2022-10-15T05:04:54;90146.47;;;10.17;69.75
17821;BME280;9035;42.554;23.188;2022-10-15T05:07:21;90145.06;;;10.20;70.02
17821;BME280;9035;42.554;23.188;2022-10-15T05:09:49;90136.78;;;10.06;69.53
17821;BME280;9035;42.554;23.188;2022-10-15T05:12:16;90144.38;;;10.11;70.47
17821;BME280;9035;42.554;23.188;2022-10-15T05:14:43;90134.53;;;10.04;71.16
17821;BME280;9035;42.554;23.188;2022-10-15T05:17:09;90145.94;;;10.03;71.08
17821;BME280;9035;42.554;23.188;2022-10-15T05:19:36;90158.84;;;10.12;70.81
17821;BME280;9035;42.554;23.188;2022-10-15T05:22:03;90153.19;;;10.10;70.71
17821;BME280;9035;42.554;23.188;2022-10-15T05:24:30;90163.41;;;10.15;71.30
17821;BME280;9035;42.554;23.188;2022-10-15T05:26:58;90158.22;;;10.15;71.53
17821;BME280;9035;42.554;23.188;2022-10-15T05:29:25;90166.44;;;10.17;71.16
17821;BME280;9035;42.554;23.188;2022-10-15T05:31:52;90160.94;;;10.18;70.64
17821;BME280;9035;42.554;23.188;2022-10-15T05:34:18;90167.19;;;10.17;71.07
17821;BME280;9035;42.554;23.188;2022-10-15T05:36:45;90177.19;;;10.27;71.32
17821;BME280;9035;42.554;23.188;2022-10-15T05:39:12;90179.34;;;10.25;71.74
17821;BME280;9035;42.554;23.188;2022-10-15T05:41:39;90172.84;;;10.39;70.63
17821;BME280;9035;42.554;23.188;2022-10-15T05:44:07;90170.63;;;10.30;70.78
17821;BME280;9035;42.554;23.188;2022-10-15T05:46:34;90181.25;;;10.37;71.27
17821;BME280;9035;42.554;23.188;2022-10-15T05:49:00;90182.28;;;10.44;70.54
17821;BME280;9035;42.554;23.188;2022-10-15T05:51:27;90185.97;;;10.35;70.65
17821;BME280;9035;42.554;23.188;2022-10-15T05:53:55;90179.97;;;10.42;71.24
17821;BME280;9035;42.554;23.188;2022-10-15T05:56:40;90178.22;;;10.55;71.07
17821;BME280;9035;42.554;23.188;2022-10-15T05:59:08;90178.59;;;10.45;71.39
17821;BME280;9035;42.554;23.188;2022-10-15T06:01:35;90178.59;;;10.45;71.45
17821;BME280;9035;42.554;23.188;2022-10-15T06:04:02;90177.34;;;10.51;71.17
17821;BME280;9035;42.554;23.188;2022-10-15T06:06:29;90186.31;;;10.53;71.34
17821;BME280;9035;42.554;23.188;2022-10-15T06:08:57;90182.78;;;10.58;70.97
17821;BME280;9035;42.554;23.188;2022-10-15T06:11:24;90182.56;;;10.63;70.79
17821;BME280;9035;42.554;23.188;2022-10-15T06:13:50;90184.22;;;10.67;70.58
17821;BME280;9035;42.554;23.188;2022-10-15T06:16:19;90182.41;;;10.47;70.72
17821;BME280;9035;42.554;23.188;2022-10-15T06:18:45;90195.28;;;10.56;71.48
17821;BME280;9035;42.554;23.188;2022-10-15T06:21:12;90193.28;;;10.61;70.92
17821;BME280;9035;42.554;23.188;2022-10-15T06:23:39;90190.22;;;10.59;72.50
17821;BME280;9035;42.554;23.188;2022-10-15T06:26:08;90199.84;;;10.59;72.71
17821;BME280;9035;42.554;23.188;2022-10-15T06:28:35;90199.78;;;10.67;72.30
17821;BME280;9035;42.554;23.188;2022-10-15T06:31:03;90207.25;;;10.69;71.98
17821;BME280;9035;42.554;23.188;2022-10-15T06:33:33;90192.94;;;10.63;71.97
17821;BME280;9035;42.554;23.188;2022-10-15T06:36:01;90211.88;;;10.84;71.71
17821;BME280;9035;42.554;23.188;2022-10-15T06:38:28;90202.13;;;10.81;71.94
17821;BME280;9035;42.554;23.188;2022-10-15T06:40:55;90215.91;;;10.73;73.17
17821;BME280;9035;42.554;23.188;2022-10-15T06:43:22;90219.84;;;10.79;72.08
17821;BME280;9035;42.554;23.188;2022-10-15T06:45:49;90222.25;;;10.84;71.71
17821;BME280;9035;42.554;23.188;2022-10-15T06:48:16;90212.13;;;10.91;72.62
17821;BME280;9035;42.554;23.188;2022-10-15T06:50:45;90217.25;;;10.99;72.69
17821;BME280;9035;42.554;23.188;2022-10-15T06:53:12;90214.69;;;11.11;72.43
17821;BME280;9035;42.554;23.188;2022-10-15T06:55:38;90215.09;;;11.01;73.35
17821;BME280;9035;42.554;23.188;2022-10-15T06:58:05;90217.16;;;11.08;73.63
17821;BME280;9035;42.554;23.188;2022-10-15T07:00:32;90218.09;;;11.23;73.49
17821;BME280;9035;42.554;23.188;2022-10-15T07:03:02;90217.41;;;11.15;74.41
17821;BME280;9035;42.554;23.188;2022-10-15T07:05:29;90225.56;;;11.25;74.20
17821;BME280;9035;42.554;23.188;2022-10-15T07:07:57;90215.75;;;11.30;74.51
17821;BME280;9035;42.554;23.188;2022-10-15T07:10:26;90225.94;;;11.35;74.85
17821;BME280;9035;42.554;23.188;2022-10-15T07:12:53;90228.56;;;11.47;75.17
17821;BME280;9035;42.554;23.188;2022-10-15T07:15:20;90224.91;;;11.48;74.92
17821;BME280;9035;42.554;23.188;2022-10-15T07:17:47;90235.66;;;11.59;74.39
17821;BME280;9035;42.554;23.188;2022-10-15T07:20:14;90232.50;;;11.53;75.04
17821;BME280;9035;42.554;23.188;2022-10-15T07:22:41;90235.28;;;11.48;75.37
17821;BME280;9035;42.554;23.188;2022-10-15T07:25:10;90236.66;;;11.66;75.34
17821;BME280;9035;42.554;23.188;2022-10-15T07:27:37;90233.09;;;11.71;75.48
17821;BME280;9035;42.554;23.188;2022-10-15T07:30:05;90230.13;;;11.93;73.01
17821;BME280;9035;42.554;23.188;2022-10-15T07:32:33;90229.56;;;11.87;74.42
17821;BME280;9035;42.554;23.188;2022-10-15T07:35:00;90229.16;;;11.85;74.90
17821;BME280;9035;42.554;23.188;2022-10-15T07:37:26;90231.41;;;11.87;73.87
17821;BME280;9035;42.554;23.188;2022-10-15T07:39:53;90228.28;;;12.05;71.61
17821;BME280;9035;42.554;23.188;2022-10-15T07:42:22;90234.16;;;12.14;72.09
17821;BME280;9035;42.554;23.188;2022-10-15T07:44:49;90239.59;;;12.33;71.06
17821;BME280;9035;42.554;23.188;2022-10-15T07:47:15;90234.25;;;12.05;72.62
17821;BME280;9035;42.554;23.188;2022-10-15T07:49:42;90241.41;;;12.08;72.81
17821;BME280;9035;42.554;23.188;2022-10-15T07:52:09;90238.06;;;12.32;71.53
17821;BME280;9035;42.554;23.188;2022-10-15T07:54:35;90242.06;;;12.53;69.84
17821;BME280;9035;42.554;23.188;2022-10-15T07:57:02;90244.56;;;12.50;70.98
17821;BME280;9035;42.554;23.188;2022-10-15T07:59:32;90243.69;;;12.34;71.40
17821;BME280;9035;42.554;23.188;2022-10-15T08:01:59;90250.75;;;12.45;70.37
17821;BME280;9035;42.554;23.188;2022-10-15T08:04:26;90256.25;;;12.79;68.80
17821;BME280;9035;42.554;23.188;2022-10-15T08:06:53;90249.66;;;12.58;68.98
17821;BME280;9035;42.554;23.188;2022-10-15T08:09:20;90246.75;;;12.60;68.21
17821;BME280;9035;42.554;23.188;2022-10-15T08:11:47;90254.50;;;12.72;66.19
17821;BME280;9035;42.554;23.188;2022-10-15T08:14:14;90251.25;;;12.98;65.08
17821;BME280;9035;42.554;23.188;2022-10-15T08:16:42;90249.94;;;13.16;63.91
17821;BME280;9035;42.554;23.188;2022-10-15T08:19:08;90244.41;;;12.82;65.55
17821;BME280;9035;42.554;23.188;2022-10-15T08:21:35;90240.81;;;13.10;64.47
17821;BME280;9035;42.554;23.188;2022-10-15T08:24:02;90247.22;;;13.13;64.06
17821;BME280;9035;42.554;23.188;2022-10-15T08:26:29;90242.53;;;13.18;63.65
17821;BME280;9035;42.554;23.188;2022-10-15T08:28:56;90237.31;;;13.18;64.79
17821;BME280;9035;42.554;23.188;2022-10-15T08:31:23;90235.47;;;13.73;61.93
17821;BME280;9035;42.554;23.188;2022-10-15T08:33:51;90242.84;;;13.56;61.77
17821;BME280;9035;42.554;23.188;2022-10-15T08:36:18;90242.69;;;13.64;59.56
17821;BME280;9035;42.554;23.188;2022-10-15T08:38:44;90233.56;;;13.70;60.21
17821;BME280;9035;42.554;23.188;2022-10-15T08:41:19;90228.78;;;13.88;60.60
17821;BME280;9035;42.554;23.188;2022-10-15T08:43:48;90235.53;;;13.89;59.53
17821;BME280;9035;42.554;23.188;2022-10-15T08:46:17;90237.19;;;14.24;56.32
17821;BME280;9035;42.554;23.188;2022-10-15T08:48:47;90239.88;;;14.28;57.47
17821;BME280;9035;42.554;23.188;2022-10-15T08:51:19;90234.75;;;14.16;58.00
17821;BME280;9035;42.554;23.188;2022-10-15T08:53:50;90238.34;;;14.27;59.76
17821;BME280;9035;42.554;23.188;2022-10-15T08:56:20;90241.22;;;14.22;61.44
17821;BME280;9035;42.554;23.188;2022-10-15T08:58:54;90244.25;;;14.39;57.91
17821;BME280;9035;42.554;23.188;2022-10-15T09:01:27;90243.56;;;14.27;60.72
17821;BME280;9035;42.554;23.188;2022-10-15T09:04:06;90249.03;;;14.37;60.58
17821;BME280;9035;42.554;23.188;2022-10-15T09:06:41;90255.59;;;14.77;58.86
17821;BME280;9035;42.554;23.188;2022-10-15T09:09:15;90252.63;;;14.79;58.65
17821;BME280;9035;42.554;23.188;2022-10-15T09:11:53;90252.75;;;14.67;58.91
17821;BME280;9035;42.554;23.188;2022-10-15T09:14:26;90242.53;;;15.12;58.49
17821;BME280;9035;42.554;23.188;2022-10-15T09:16:59;90250.38;;;15.12;59.53
17821;BME280;9035;42.554;23.188;2022-10-15T09:19:30;90256.97;;;15.06;57.52
17821;BME280;9035;42.554;23.188;2022-10-15T09:22:00;90245.84;;;15.09;57.58
17821;BME280;9035;42.554;23.188;2022-10-15T09:24:28;90240.41;;;15.32;56.32
17821;BME280;9035;42.554;23.188;2022-10-15T09:27:02;90243.97;;;15.43;57.37
17821;BME280;9035;42.554;23.188;2022-10-15T09:29:36;90243.44;;;15.72;55.65
17821;BME280;9035;42.554;23.188;2022-10-15T09:32:12;90237.84;;;15.74;57.09
17821;BME280;9035;42.554;23.188;2022-10-15T09:34:44;90240.94;;;15.79;56.31
17821;BME280;9035;42.554;23.188;2022-10-15T09:37:17;90237.97;;;16.00;55.26
17821;BME280;9035;42.554;23.188;2022-10-15T09:40:15;90239.72;;;16.14;52.68
17821;BME280;9035;42.554;23.188;2022-10-15T09:42:49;90236.44;;;16.17;54.51
17821;BME280;9035;42.554;23.188;2022-10-15T09:45:16;90238.47;;;16.50;53.83
17821;BME280;9035;42.554;23.188;2022-10-15T09:47:44;90239.78;;;16.59;52.54
17821;BME280;9035;42.554;23.188;2022-10-15T09:50:12;90246.16;;;16.62;53.37
17821;BME280;9035;42.554;23.188;2022-10-15T09:52:57;90247.09;;;16.73;55.82
17821;BME280;9035;42.554;23.188;2022-10-15T09:55:34;90237.84;;;16.56;51.25
17821;BME280;9035;42.554;23.188;2022-10-15T09:58:05;90249.16;;;16.19;52.79
17821;BME280;9035;42.554;23.188;2022-10-15T10:00:56;90252.06;;;16.14;53.25
17821;BME280;9035;42.554;23.188;2022-10-15T10:03:26;90255.09;;;16.16;52.83
17821;BME280;9035;42.554;23.188;2022-10-15T10:05:59;90252.44;;;16.35;52.74
17821;BME280;9035;42.554;23.188;2022-10-15T10:08:31;90257.53;;;16.69;53.57
17821;BME280;9035;42.554;23.188;2022-10-15T10:11:01;90247.03;;;16.95;52.01
17821;BME280;9035;42.554;23.188;2022-10-15T10:13:30;90236.56;;;16.95;51.20
17821;BME280;9035;42.554;23.188;2022-10-15T10:16:02;90261.56;;;17.15;50.60
17821;BME280;9035;42.554;23.188;2022-10-15T10:18:30;90252.75;;;17.26;50.02
17821;BME280;9035;42.554;23.188;2022-10-15T10:20:59;90252.56;;;17.12;49.69
17821;BME280;9035;42.554;23.188;2022-10-15T10:23:34;90255.25;;;17.42;49.48
17821;BME280;9035;42.554;23.188;2022-10-15T10:26:03;90234.28;;;17.42;48.24
17821;BME280;9035;42.554;23.188;2022-10-15T10:28:33;90257.41;;;17.36;49.34
17821;BME280;9035;42.554;23.188;2022-10-15T10:31:05;90264.19;;;17.15;48.63
17821;BME280;9035;42.554;23.188;2022-10-15T10:33:36;90253.09;;;17.25;48.75
17821;BME280;9035;42.554;23.188;2022-10-15T10:36:05;90252.25;;;17.43;48.18
17821;BME280;9035;42.554;23.188;2022-10-15T10:38:36;90245.19;;;17.76;49.53
17821;BME280;9035;42.554;23.188;2022-10-15T10:41:05;90244.22;;;18.21;47.89
17821;BME280;9035;42.554;23.188;2022-10-15T10:43:34;90240.34;;;18.51;45.93
17821;BME280;9035;42.554;23.188;2022-10-15T10:46:03;90239.34;;;18.62;45.61
17821;BME280;9035;42.554;23.188;2022-10-15T10:48:42;90240.94;;;18.74;46.41
17821;BME280;9035;42.554;23.188;2022-10-15T10:51:12;90245.84;;;18.36;45.83
17821;BME280;9035;42.554;23.188;2022-10-15T10:53:48;90249.50;;;18.24;45.84
17821;BME280;9035;42.554;23.188;2022-10-15T10:56:19;90243.84;;;18.22;45.33
17821;BME280;9035;42.554;23.188;2022-10-15T10:58:51;90241.13;;;18.15;45.84
17821;BME280;9035;42.554;23.188;2022-10-15T11:01:21;90246.91;;;18.28;45.93
17821;BME280;9035;42.554;23.188;2022-10-15T11:03:48;90242.06;;;18.30;45.89
17821;BME280;9035;42.554;23.188;2022-10-15T11:06:49;90240.88;;;18.27;47.10
17821;BME280;9035;42.554;23.188;2022-10-15T11:09:42;90232.78;;;18.43;45.65
17821;BME280;9035;42.554;23.188;2022-10-15T11:12:32;90239.88;;;18.39;46.31
17821;BME280;9035;42.554;23.188;2022-10-15T11:15:16;90239.75;;;18.68;44.82
17821;BME280;9035;42.554;23.188;2022-10-15T11:17:51;90235.41;;;18.86;44.73
17821;BME280;9035;42.554;23.188;2022-10-15T11:20:25;90235.06;;;18.87;44.02
17821;BME280;9035;42.554;23.188;2022-10-15T11:23:04;90252.31;;;18.88;43.71
17821;BME280;9035;42.554;23.188;2022-10-15T11:25:40;90244.03;;;18.83;43.85
17821;BME280;9035;42.554;23.188;2022-10-15T11:28:27;90251.50;;;18.77;44.91
17821;BME280;9035;42.554;23.188;2022-10-15T11:31:02;90250.22;;;19.65;43.87
17821;BME280;9035;42.554;23.188;2022-10-15T11:33:45;90234.41;;;19.58;45.75
17821;BME280;9035;42.554;23.188;2022-10-15T11:36:31;90241.31;;;19.19;43.54
17821;BME280;9035;42.554;23.188;2022-10-15T11:39:12;90237.47;;;19.10;43.21
17821;BME280;9035;42.554;23.188;2022-10-15T11:41:49;90239.84;;;18.75;44.46
17821;BME280;9035;42.554;23.188;2022-10-15T11:44:31;90238.88;;;18.50;45.82
17821;BME280;9035;42.554;23.188;2022-10-15T11:47:10;90228.09;;;18.65;44.31
17821;BME280;9035;42.554;23.188;2022-10-15T11:49:48;90237.44;;;18.59;44.16
17821;BME280;9035;42.554;23.188;2022-10-15T11:52:30;90237.66;;;18.41;44.55
17821;BME280;9035;42.554;23.188;2022-10-15T11:55:03;90230.00;;;18.25;45.33
17821;BME280;9035;42.554;23.188;2022-10-15T11:57:35;90233.00;;;18.27;45.23
17821;BME280;9035;42.554;23.188;2022-10-15T12:00:13;90237.56;;;18.34;45.54
17821;BME280;9035;42.554;23.188;2022-10-15T12:02:41;90242.91;;;18.41;44.75
17821;BME280;9035;42.554;23.188;2022-10-15T12:05:13;90233.50;;;18.40;45.41
17821;BME280;9035;42.554;23.188;2022-10-15T12:07:44;90246.94;;;18.71;44.46
17821;BME280;9035;42.554;23.188;2022-10-15T12:10:28;90239.25;;;19.49;42.02
17821;BME280;9035;42.554;23.188;2022-10-15T12:13:05;90236.59;;;19.49;41.97
17821;BME280;9035;42.554;23.188;2022-10-15T12:15:39;90236.56;;;19.42;42.14
17821;BME280;9035;42.554;23.188;2022-10-15T12:18:22;90234.56;;;19.18;42.88
17821;BME280;9035;42.554;23.188;2022-10-15T12:20:53;90238.56;;;18.58;43.21
17821;BME280;9035;42.554;23.188;2022-10-15T12:23:24;90238.75;;;18.40;43.63
17821;BME280;9035;42.554;23.188;2022-10-15T12:25:52;90237.66;;;18.41;44.23
17821;BME280;9035;42.554;23.188;2022-10-15T12:28:22;90233.25;;;18.52;43.42
17821;BME280;9035;42.554;23.188;2022-10-15T12:30:54;90234.47;;;18.64;43.22
17821;BME280;9035;42.554;23.188;2022-10-15T12:33:32;90235.34;;;18.79;44.07
17821;BME280;9035;42.554;23.188;2022-10-15T12:36:00;90235.00;;;18.84;44.36
17821;BME280;9035;42.554;23.188;2022-10-15T12:38:30;90228.31;;;18.90;44.20
17821;BME280;9035;42.554;23.188;2022-10-15T12:41:00;90228.38;;;19.00;42.80
17821;BME280;9035;42.554;23.188;2022-10-15T12:43:30;90224.25;;;19.03;44.55
17821;BME280;9035;42.554;23.188;2022-10-15T12:46:00;90223.81;;;18.90;43.75
17821;BME280;9035;42.554;23.188;2022-10-15T12:48:30;90225.38;;;19.02;43.08
17821;BME280;9035;42.554;23.188;2022-10-15T12:54:32;90223.13;;;19.57;40.90
17821;BME280;9035;42.554;23.188;2022-10-15T12:56:59;90216.38;;;19.63;41.48
17821;BME280;9035;42.554;23.188;2022-10-15T12:59:53;90212.97;;;19.59;41.75
17821;BME280;9035;42.554;23.188;2022-10-15T13:02:42;90216.06;;;19.75;40.48
17821;BME280;9035;42.554;23.188;2022-10-15T13:05:23;90209.19;;;20.87;38.77
17821;BME280;9035;42.554;23.188;2022-10-15T13:07:51;90207.72;;;20.97;38.50
17821;BME280;9035;42.554;23.188;2022-10-15T13:10:20;90215.91;;;20.32;38.82
17821;BME280;9035;42.554;23.188;2022-10-15T13:12:51;90208.78;;;20.50;39.15
17821;BME280;9035;42.554;23.188;2022-10-15T13:15:21;90210.34;;;21.03;37.75
17821;BME280;9035;42.554;23.188;2022-10-15T13:17:49;90206.13;;;21.58;39.13
17821;BME280;9035;42.554;23.188;2022-10-15T13:20:28;90201.22;;;21.60;37.22